Time;durP1;ratioP1;P1;durP2;ratioP2;P2;SDS_P1;SDS_P2;PMS_P1;PMS_P2;Temp;Humidity;BMP_temperature;BMP_pressure;BME280_temperature;BME280_humidity;BME280_pressure;Samples;Min_cycle;Max_cycle;Signal;HPM_P1;HPM_P2
2022/01/05 00:00:10;;;;;;;58.73;28.50;;;6.70;93.00;;;6.71;64.72;94409.34;4994195;28;20493;-64
2022/01/05 00:02:39;;;;;;;49.60;26.40;;;6.70;93.10;;;6.71;64.92;94410.19;4991603;28;20446;-58
2022/01/05 00:05:07;;;;;;;48.20;27.23;;;6.70;93.40;;;6.72;65.11;94406.63;4991046;28;20517;-63
2022/01/05 00:07:35;;;;;;;54.60;25.17;;;6.70;93.10;;;6.71;64.97;94399.75;4991359;28;20509;-65
2022/01/05 00:10:02;;;;;;;48.33;25.43;;;6.70;93.00;;;6.71;65.10;94399.75;4989745;28;20488;-58
2022/01/05 00:12:29;;;;;;;40.00;24.90;;;6.80;93.00;;;6.72;64.78;94405.78;4991450;28;20480;-59
2022/01/05 00:14:56;;;;;;;45.57;23.27;;;6.70;92.90;;;6.71;64.70;94391.91;4991080;28;20478;-58
2022/01/05 00:17:25;;;;;;;36.10;21.67;;;6.70;92.90;;;6.72;64.24;94401.38;4990836;28;20459;-63
2022/01/05 00:19:53;;;;;;;41.80;22.07;;;6.80;92.90;;;6.75;64.68;94395.91;4991414;28;20475;-58
2022/01/05 00:22:20;;;;;;;43.23;24.40;;;6.80;92.90;;;6.77;64.31;94396.63;4990307;28;20459;-62
2022/01/05 00:24:47;;;;;;;45.03;23.60;;;6.80;92.80;;;6.78;64.30;94400.88;4992965;28;20565;-58
2022/01/05 00:27:15;;;;;;;49.93;24.57;;;6.80;92.70;;;6.79;64.41;94396.50;4990992;28;20451;-62
2022/01/05 00:29:42;;;;;;;40.03;23.20;;;6.80;92.70;;;6.77;63.90;94390.53;4988395;28;20672;-59
2022/01/05 00:32:10;;;;;;;49.50;23.30;;;6.80;92.60;;;6.76;64.59;94399.38;4990887;28;20454;-63
2022/01/05 00:34:38;;;;;;;46.77;23.30;;;6.80;92.70;;;6.76;64.17;94389.72;4990704;28;20466;-57
2022/01/05 00:37:06;;;;;;;41.00;23.00;;;6.80;92.50;;;6.75;64.54;94395.09;4991249;28;20469;-57
2022/01/05 00:39:33;;;;;;;44.00;23.70;;;6.80;92.60;;;6.74;64.63;94388.19;4993184;28;20458;-63
2022/01/05 00:42:00;;;;;;;49.30;24.67;;;6.80;92.60;;;6.74;64.52;94391.66;4992268;28;20613;-58
2022/01/05 00:44:28;;;;;;;43.90;24.10;;;6.80;92.50;;;6.73;64.02;94395.22;4992516;28;20458;-57
2022/01/05 00:46:55;;;;;;;43.03;24.00;;;6.80;92.50;;;6.73;64.07;94402.22;4992266;28;20454;-58
2022/01/05 00:49:22;;;;;;;46.60;24.23;;;6.80;92.50;;;6.72;64.10;94396.16;4990547;28;20450;-59
2022/01/05 00:51:51;;;;;;;53.07;24.80;;;6.70;92.40;;;6.70;64.73;94395.47;4990702;28;20490;-61
2022/01/05 00:54:18;;;;;;;62.67;25.40;;;6.70;92.90;;;6.68;64.19;94386.94;4990894;28;20939;-63
2022/01/05 00:56:45;;;;;;;53.67;25.17;;;6.70;92.60;;;6.67;64.54;94382.66;4989961;28;21042;-63
2022/01/05 00:59:13;;;;;;;46.30;25.33;;;6.70;92.60;;;6.65;64.52;94379.34;4989287;28;20451;-60
2022/01/05 01:01:40;;;;;;;51.80;27.90;;;6.70;92.60;;;6.64;64.60;94388.13;4987719;28;20608;-57
2022/01/05 01:04:07;;;;;;;50.50;24.83;;;6.70;92.60;;;6.62;64.51;94377.00;4989041;28;20998;-58
2022/01/05 01:06:35;;;;;;;46.07;23.70;;;6.70;92.60;;;6.60;64.94;94378.88;4989971;28;20867;-58
2022/01/05 01:09:04;;;;;;;47.27;24.03;;;6.70;93.10;;;6.59;64.35;94374.63;4989329;28;20466;-62
2022/01/05 01:11:31;;;;;;;49.57;25.27;;;6.60;92.60;;;6.59;64.81;94382.47;4992276;28;20524;-57
2022/01/05 01:13:58;;;;;;;49.47;26.17;;;6.60;92.60;;;6.57;64.45;94382.59;4990801;28;20849;-59
2022/01/05 01:16:25;;;;;;;48.27;27.10;;;6.60;92.50;;;6.57;64.53;94381.78;4988164;28;21002;-63
2022/01/05 01:18:53;;;;;;;44.97;25.07;;;6.60;92.60;;;6.57;64.72;94377.38;4989674;28;20454;-62
2022/01/05 01:21:20;;;;;;;46.30;25.80;;;6.60;92.60;;;6.58;64.58;94379.03;4989562;28;20498;-63
2022/01/05 01:23:55;;;;;;;48.77;24.47;;;6.60;92.60;;;6.58;64.53;94381.66;4990915;28;20455;-57
2022/01/05 01:26:24;;;;;;;51.63;24.53;;;6.60;92.60;;;6.57;64.57;94379.19;4989979;28;20493;-61
2022/01/05 01:28:51;;;;;;;43.17;23.50;;;6.60;92.50;;;6.53;64.36;94368.13;4986417;28;20967;-63
2022/01/05 01:31:19;;;;;;;53.90;25.17;;;6.60;92.60;;;6.50;64.33;94367.56;4992639;28;20475;-58
2022/01/05 01:33:46;;;;;;;47.47;25.50;;;6.60;92.60;;;6.50;64.07;94372.78;4991088;28;21245;-63
2022/01/05 01:36:13;;;;;;;53.10;23.77;;;6.50;92.50;;;6.48;64.15;94378.16;4995247;28;20485;-62
2022/01/05 01:38:41;;;;;;;61.43;24.77;;;6.60;92.60;;;6.46;63.99;94367.81;4987875;28;20963;-57
2022/01/05 01:41:09;;;;;;;48.27;24.70;;;6.50;92.50;;;6.45;64.52;94360.09;4987735;28;21050;-59
2022/01/05 01:43:38;;;;;;;48.63;23.70;;;6.50;92.50;;;6.43;64.63;94362.84;4989341;28;20931;-63
2022/01/05 01:46:05;;;;;;;39.53;22.83;;;6.50;92.60;;;6.42;64.64;94348.13;4989841;28;20466;-62
2022/01/05 01:48:33;;;;;;;45.70;22.60;;;6.50;92.70;;;6.41;64.35;94353.47;4983514;28;20531;-58
2022/01/05 01:51:00;;;;;;;43.63;23.47;;;6.50;92.70;;;6.40;64.84;94360.50;4986988;28;20474;-59
2022/01/05 01:53:27;;;;;;;43.13;23.17;;;6.50;92.70;;;6.42;64.54;94358.56;4988976;28;20937;-57
2022/01/05 01:55:54;;;;;;;41.20;23.07;;;6.50;92.70;;;6.41;64.25;94356.94;4988709;28;20474;-57
2022/01/05 01:58:23;;;;;;;44.30;20.70;;;6.50;92.60;;;6.40;64.41;94352.66;4989018;28;20462;-63
2022/01/05 02:00:52;;;;;;;36.17;21.57;;;6.50;92.60;;;6.39;64.40;94351.00;4989320;28;20494;-62
2022/01/05 02:03:19;;;;;;;41.70;21.10;;;6.50;92.60;;;6.38;64.58;94348.50;4987242;28;20458;-62
2022/01/05 02:05:46;;;;;;;46.67;22.47;;;6.40;92.50;;;6.37;64.54;94345.06;4989360;28;20945;-62
2022/01/05 02:08:14;;;;;;;41.07;22.60;;;6.40;92.40;;;6.35;64.01;94352.22;4987372;28;20442;-63
2022/01/05 02:10:43;;;;;;;45.63;22.80;;;6.40;92.40;;;6.32;64.26;94355.09;4987375;28;20490;-63
2022/01/05 02:13:10;;;;;;;38.70;21.70;;;6.40;92.80;;;6.30;64.06;94350.94;4989867;28;20490;-63
2022/01/05 02:15:39;;;;;;;44.33;21.93;;;6.40;92.40;;;6.23;63.87;94337.56;4988531;28;20548;-58
2022/01/05 02:18:57;;;;;;;37.30;21.47;;;6.30;92.30;;;6.23;64.56;94338.38;4986691;28;20446;-57
2022/01/05 02:21:03;;;;;;;42.23;21.63;;;6.30;92.30;;;6.20;64.28;94337.81;4985476;28;20474;-57
2022/01/05 02:23:30;;;;;;;36.77;21.23;;;6.30;92.40;;;6.17;64.19;94340.69;4989662;28;20517;-62
2022/01/05 02:25:57;;;;;;;40.00;20.77;;;6.20;92.50;;;6.12;64.33;94341.06;4988800;28;20525;-61
2022/01/05 02:28:25;;;;;;;33.37;20.63;;;6.20;92.50;;;6.10;64.72;94346.41;4988298;28;20454;-57
2022/01/05 02:30:53;;;;;;;41.30;22.20;;;6.20;92.60;;;6.07;64.89;94345.81;4989696;28;20491;-59
2022/01/05 02:33:20;;;;;;;38.73;22.77;;;6.20;92.60;;;6.05;64.74;94340.72;4994793;28;20990;-57
2022/01/05 02:35:47;;;;;;;41.87;24.00;;;6.10;92.60;;;6.02;64.40;94345.38;4989834;28;21023;-57
2022/01/05 02:38:19;;;;;;;45.00;24.57;;;6.10;92.50;;;5.96;64.83;94343.22;4986160;28;20517;-62
2022/01/05 02:40:46;;;;;;;41.63;24.47;;;6.10;92.60;;;5.89;65.01;94338.50;4989056;28;21037;-62
2022/01/05 02:43:14;;;;;;;48.47;25.37;;;6.00;92.70;;;5.87;64.64;94339.56;4988538;28;20477;-62
2022/01/05 02:45:41;;;;;;;49.13;23.80;;;6.00;92.70;;;5.84;64.80;94334.59;4986747;28;20568;-62
2022/01/05 02:48:09;;;;;;;42.60;23.97;;;5.90;93.00;;;5.82;64.90;94336.50;4989241;28;20521;-62
2022/01/05 02:50:36;;;;;;;46.83;24.73;;;5.90;92.60;;;5.79;64.64;94341.97;4981688;28;20534;-62
2022/01/05 02:53:03;;;;;;;54.67;30.27;;;5.90;92.70;;;5.75;64.51;94334.38;4988371;28;20446;-58
2022/01/05 02:55:32;;;;;;;59.60;31.00;;;5.80;92.60;;;5.69;64.69;94328.84;4986953;28;20486;-58
2022/01/05 02:58:00;;;;;;;56.40;31.20;;;5.80;92.70;;;5.61;64.84;94332.06;4988885;28;20451;-62
2022/01/05 03:00:27;;;;;;;59.10;28.27;;;5.70;92.90;;;5.56;65.17;94332.44;4987444;28;20532;-57
2022/01/05 03:02:55;;;;;;;65.47;29.30;;;5.70;93.10;;;5.51;65.31;94334.56;4988088;28;20486;-63
2022/01/05 03:05:22;;;;;;;53.53;28.97;;;5.60;93.00;;;5.48;65.35;94332.19;4988857;28;20482;-63
2022/01/05 03:07:49;;;;;;;52.13;29.67;;;5.60;93.00;;;5.46;65.96;94326.28;4989649;28;20455;-63
2022/01/05 03:10:18;;;;;;;59.47;29.73;;;5.50;93.40;;;5.45;65.53;94327.22;4992397;28;20475;-62
2022/01/05 03:12:47;;;;;;;50.20;29.67;;;5.50;93.40;;;5.43;65.46;94318.72;4992359;28;20990;-57
2022/01/05 03:15:14;;;;;;;53.83;26.80;;;5.50;93.30;;;5.41;65.10;94317.16;4996512;28;21044;-62
2022/01/05 03:17:42;;;;;;;48.17;26.70;;;5.50;93.20;;;5.42;65.79;94319.66;4987754;28;20975;-63
2022/01/05 03:20:11;;;;;;;45.97;27.07;;;5.50;93.30;;;5.43;65.91;94323.09;4990045;28;20548;-59
2022/01/05 03:22:38;;;;;;;49.67;28.67;;;5.50;93.50;;;5.43;65.93;94323.94;4990539;28;20494;-58
2022/01/05 03:25:07;;;;;;;61.40;30.40;;;5.50;93.50;;;5.43;65.64;94323.94;4992202;28;20813;-58
2022/01/05 03:27:34;;;;;;;60.97;30.30;;;5.50;93.40;;;5.41;66.07;94312.81;4992325;28;20462;-63
2022/01/05 03:30:04;;;;;;;44.00;25.77;;;5.50;93.50;;;5.41;65.82;94317.16;4992481;28;20509;-57
2022/01/05 03:32:42;;;;;;;39.77;24.30;;;5.50;93.50;;;5.36;65.89;94321.00;4990121;28;21034;-63
2022/01/05 03:35:10;;;;;;;52.70;26.80;;;5.50;93.50;;;5.34;65.96;94314.22;4990615;28;20557;-57
2022/01/05 03:37:37;;;;;;;49.57;25.27;;;5.40;93.60;;;5.32;65.95;94332.59;4992711;28;20454;-63
2022/01/05 03:40:06;;;;;;;42.90;24.00;;;5.40;93.60;;;5.30;65.66;94318.88;4992700;28;20510;-58
2022/01/05 03:42:33;;;;;;;53.43;24.90;;;5.40;93.60;;;5.31;65.96;94307.47;4992286;28;20490;-58
2022/01/05 03:45:02;;;;;;;49.07;27.20;;;5.40;93.60;;;5.29;65.86;94314.59;4992314;28;20474;-57
2022/01/05 03:47:29;;;;;;;46.13;26.43;;;5.40;93.60;;;5.27;65.89;94306.06;4990833;28;20563;-57
2022/01/05 03:49:57;;;;;;;52.63;24.63;;;5.40;93.60;;;5.26;66.36;94306.19;4992525;28;20478;-64
2022/01/05 03:52:24;;;;;;;49.27;28.03;;;5.40;93.70;;;5.22;66.20;94310.84;4990411;28;20454;-62
2022/01/05 03:54:51;;;;;;;58.13;27.10;;;5.40;93.70;;;5.19;66.18;94313.69;4990782;28;20520;-57
2022/01/05 03:57:18;;;;;;;42.97;27.10;;;5.30;93.70;;;5.16;65.87;94317.34;4990711;28;20469;-63
2022/01/05 03:59:46;;;;;;;44.10;25.60;;;5.30;93.60;;;5.14;65.97;94313.19;4991139;28;20455;-58
2022/01/05 04:02:14;;;;;;;43.27;23.50;;;5.30;93.60;;;5.13;66.00;94314.16;4991339;28;20862;-57
2022/01/05 04:04:41;;;;;;;42.97;24.07;;;5.30;93.70;;;5.08;65.96;94303.25;4988902;28;20455;-57
2022/01/05 04:07:09;;;;;;;41.97;25.70;;;5.20;93.60;;;5.06;66.07;94312.97;4990282;28;20459;-61
2022/01/05 04:09:37;;;;;;;45.27;23.23;;;5.20;93.70;;;5.00;66.47;94299.47;4992785;28;20870;-63
2022/01/05 04:12:05;;;;;;;38.67;22.13;;;5.20;93.90;;;4.99;66.41;94303.03;4988297;28;20481;-60
2022/01/05 04:14:32;;;;;;;48.83;24.60;;;5.10;94.00;;;4.99;66.23;94295.22;4991114;28;20521;-56
2022/01/05 04:17:00;;;;;;;48.03;25.40;;;5.10;93.80;;;4.98;66.21;94298.75;4991737;28;20474;-57
2022/01/05 04:19:28;;;;;;;45.77;24.27;;;5.10;93.80;;;4.96;66.23;94290.25;4989830;28;20454;-63
2022/01/05 04:21:56;;;;;;;43.73;23.47;;;5.10;93.80;;;4.96;66.23;94287.63;4989583;28;20486;-63
2022/01/05 04:24:23;;;;;;;47.97;22.80;;;5.10;93.90;;;4.95;66.16;94288.56;4993530;28;20450;-58
2022/01/05 04:26:50;;;;;;;42.20;22.30;;;5.10;94.00;;;4.95;66.23;94283.38;4991836;28;20478;-62
2022/01/05 04:29:17;;;;;;;47.03;22.60;;;5.10;93.80;;;4.94;66.12;94292.16;4989766;28;20451;-59
2022/01/05 04:31:45;;;;;;;42.90;22.37;;;5.10;93.70;;;4.94;66.04;94299.97;4989864;28;20573;-63
2022/01/05 04:34:13;;;;;;;41.90;22.10;;;5.10;93.70;;;4.91;66.41;94304.56;4991290;28;20569;-57
2022/01/05 04:36:41;;;;;;;47.03;24.77;;;5.00;94.10;;;4.90;66.38;94308.97;4984295;28;20475;-57
2022/01/05 04:39:09;;;;;;;44.77;22.53;;;5.00;93.90;;;4.88;66.34;94303.03;4988335;28;20454;-61
2022/01/05 04:41:39;;;;;;;44.17;21.83;;;5.00;93.80;;;4.86;65.93;94297.09;4987342;28;20843;-66
2022/01/05 04:44:07;;;;;;;47.47;26.03;;;5.00;93.80;;;4.86;66.23;94302.31;4989369;28;20967;-57
2022/01/05 04:46:34;;;;;;;57.07;25.87;;;5.00;93.80;;;4.84;66.28;94315.47;4988489;28;20845;-61
2022/01/05 04:49:01;;;;;;;56.13;27.33;;;5.00;93.80;;;4.81;66.48;94304.47;4989705;28;20450;-57
2022/01/05 04:51:29;;;;;;;76.87;36.63;;;4.90;94.00;;;4.80;66.25;94318.44;4990474;28;21097;-61
2022/01/05 04:53:57;;;;;;;84.87;41.67;;;4.90;93.80;;;4.76;66.21;94317.84;4988457;28;20458;-57
2022/01/05 04:56:25;;;;;;;97.33;46.33;;;4.90;93.80;;;4.74;66.21;94324.09;4989038;28;20471;-56
2022/01/05 04:58:52;;;;;;;87.70;44.23;;;4.90;93.80;;;4.72;66.38;94318.19;4986949;28;20478;-58
2022/01/05 05:01:19;;;;;;;70.67;36.73;;;4.90;93.80;;;4.69;66.40;94318.44;4984634;28;20566;-61
2022/01/05 05:03:47;;;;;;;66.37;36.13;;;4.80;93.80;;;4.67;66.46;94327.19;4987408;28;20455;-58
2022/01/05 05:06:14;;;;;;;65.50;33.30;;;4.80;93.90;;;4.66;66.46;94327.31;4987977;28;20474;-58
2022/01/05 05:08:41;;;;;;;63.27;33.10;;;4.80;93.90;;;4.63;66.50;94328.38;4990354;28;20458;-58
2022/01/05 05:11:10;;;;;;;63.10;34.90;;;4.80;94.00;;;4.60;66.55;94326.00;4989288;28;20544;-58
2022/01/05 05:13:37;;;;;;;68.10;34.83;;;4.70;94.00;;;4.58;66.39;94322.69;4988051;28;20545;-62
2022/01/05 05:16:05;;;;;;;70.23;37.43;;;4.70;94.10;;;4.59;66.53;94333.94;4990430;28;20486;-62
2022/01/05 05:18:33;;;;;;;75.00;37.77;;;4.70;94.10;;;4.59;66.75;94347.78;4990110;28;20813;-57
2022/01/05 05:21:01;;;;;;;81.03;39.27;;;4.70;94.10;;;4.59;66.51;94339.97;4988491;28;20478;-60
2022/01/05 05:23:28;;;;;;;65.30;35.23;;;4.70;94.00;;;4.57;66.59;94352.28;4987790;28;20546;-58
2022/01/05 05:25:55;;;;;;;75.67;36.27;;;4.70;94.00;;;4.55;66.65;94351.56;4988012;28;20956;-57
2022/01/05 05:28:24;;;;;;;68.80;38.47;;;4.70;94.20;;;4.53;66.67;94348.25;4989177;28;20459;-57
2022/01/05 05:30:51;;;;;;;73.10;38.70;;;4.70;94.10;;;4.53;66.50;94345.66;4983857;28;20472;-64
2022/01/05 05:33:19;;;;;;;69.53;33.80;;;4.70;94.10;;;4.51;66.54;94338.88;4988289;28;20459;-58
2022/01/05 05:35:46;;;;;;;60.57;34.47;;;4.60;94.00;;;4.50;66.76;94343.28;4985523;28;20489;-65
2022/01/05 05:38:15;;;;;;;62.33;33.10;;;4.60;94.00;;;4.47;66.67;94341.72;4987429;28;20446;-57
2022/01/05 05:40:43;;;;;;;59.60;30.27;;;4.60;94.20;;;4.46;67.27;94331.41;4988371;28;20593;-56
2022/01/05 05:43:10;;;;;;;59.63;31.43;;;4.60;94.40;;;4.47;66.62;94333.09;4987218;28;20501;-63
2022/01/05 05:45:39;;;;;;;57.17;31.73;;;4.60;94.30;;;4.46;67.33;94337.47;4987038;28;20966;-64
2022/01/05 05:48:06;;;;;;;54.90;26.67;;;4.60;94.60;;;4.45;67.21;94351.44;4989143;28;20458;-64
2022/01/05 05:50:34;;;;;;;46.43;24.60;;;4.60;94.60;;;4.43;67.56;94344.66;4987982;28;20474;-58
2022/01/05 05:53:01;;;;;;;47.50;25.30;;;4.60;94.50;;;4.42;66.89;94345.63;4987111;28;20454;-64
2022/01/05 05:55:28;;;;;;;52.70;24.97;;;4.60;94.40;;;4.41;66.85;94354.38;4989746;28;21025;-58
2022/01/05 05:57:56;;;;;;;45.97;23.23;;;4.60;94.40;;;4.39;67.23;94351.91;4989022;28;20903;-60
2022/01/05 06:00:23;;;;;;;41.83;23.80;;;4.50;94.50;;;4.38;67.59;94347.63;4984312;28;20843;-66
2022/01/05 06:02:52;;;;;;;39.87;21.83;;;4.50;94.70;;;4.37;66.62;94337.31;4987146;28;20852;-58
2022/01/05 06:05:19;;;;;;;46.23;25.37;;;4.50;94.30;;;4.33;66.76;94334.13;4990160;28;20486;-64
2022/01/05 06:07:46;;;;;;;43.93;24.70;;;4.50;94.30;;;4.32;67.49;94337.66;4987048;28;20473;-64
2022/01/05 06:10:14;;;;;;;57.60;24.80;;;4.50;95.00;;;4.35;67.61;94349.63;4991218;28;20910;-64
2022/01/05 06:12:41;;;;;;;44.47;24.70;;;4.50;94.80;;;4.36;67.54;94341.72;4989694;28;20454;-64
2022/01/05 06:15:10;;;;;;;46.20;24.00;;;4.50;94.90;;;4.36;67.37;94338.28;4988822;28;20470;-58
2022/01/05 06:17:37;;;;;;;48.77;23.10;;;4.50;94.80;;;4.39;67.73;94351.06;4987990;28;20530;-58
2022/01/05 06:20:09;;;;;;;41.57;23.97;;;4.50;95.10;;;4.57;67.57;94349.69;4988473;28;20501;-58
2022/01/05 06:22:40;;;;;;;44.93;25.33;;;4.70;95.30;;;4.92;67.02;94343.53;4986171;28;20478;-58
2022/01/05 06:25:09;;;;;;;41.87;23.80;;;5.00;94.90;;;5.37;66.25;94353.91;4987945;28;21011;-58
2022/01/05 06:27:36;;;;;;;46.60;25.30;;;5.40;94.60;;;5.90;65.70;94365.41;4985930;28;20451;-63
2022/01/05 06:30:06;;;;;;;43.90;23.47;;;5.90;94.10;;;6.44;64.27;94354.06;4987737;28;20518;-64
2022/01/05 06:32:35;;;;;;;41.70;24.10;;;6.50;93.40;;;7.02;63.01;94352.72;4986513;28;20460;-62
2022/01/05 06:35:02;;;;;;;46.87;27.07;;;7.10;92.70;;;7.47;62.46;94349.72;4989484;28;20577;-64
2022/01/05 06:37:31;;;;;;;56.53;28.90;;;7.50;91.70;;;7.74;61.04;94347.41;4990610;28;20509;-64
2022/01/05 06:39:59;;;;;;;55.33;28.93;;;7.80;90.60;;;7.92;60.20;94371.13;4985468;28;20497;-63
2022/01/05 06:42:26;;;;;;;50.10;25.77;;;8.00;90.20;;;8.27;59.87;94367.97;4985614;28;20589;-63
2022/01/05 06:44:53;;;;;;;49.73;25.47;;;8.40;89.70;;;8.50;58.67;94365.13;4995083;28;20481;-63
2022/01/05 06:47:20;;;;;;;44.47;24.90;;;8.60;87.80;;;8.43;57.99;94362.19;4993074;28;20462;-58
2022/01/05 06:49:48;;;;;;;43.07;24.37;;;8.70;86.50;;;8.31;58.42;94363.31;4995131;28;20539;-64
2022/01/05 06:52:15;;;;;;;53.30;25.50;;;8.50;85.90;;;8.16;58.75;94361.09;4993263;28;20465;-57
2022/01/05 06:54:44;;;;;;;41.63;24.90;;;8.40;86.10;;;8.30;58.92;94372.13;4992314;28;20458;-57
2022/01/05 06:57:11;;;;;;;44.87;28.00;;;8.50;87.70;;;8.81;59.03;94363.13;4990999;28;20481;-59
2022/01/05 06:59:39;;;;;;;61.50;30.27;;;8.90;87.80;;;9.58;57.51;94355.13;4993325;28;20446;-57
2022/01/05 07:02:06;;;;;;;54.50;30.50;;;9.60;86.50;;;10.42;56.43;94350.56;4991946;28;20943;-62
2022/01/05 07:04:34;;;;;;;52.93;29.67;;;10.40;83.80;;;11.27;55.04;94350.78;4990368;28;20814;-58
2022/01/05 07:07:01;;;;;;;45.13;26.77;;;11.40;81.60;;;12.09;52.47;94342.38;4989430;28;20454;-63
2022/01/05 07:09:28;;;;;;;44.53;25.67;;;12.20;77.80;;;12.76;52.38;94350.16;4991698;28;20465;-62
2022/01/05 07:11:57;;;;;;;38.43;25.40;;;12.90;77.00;;;13.49;51.85;94356.31;4992406;28;20463;-63
2022/01/05 07:14:25;;;;;;;39.87;25.23;;;13.60;75.90;;;14.13;49.42;94350.09;4990275;28;20458;-59
2022/01/05 07:16:52;;;;;;;42.67;25.37;;;14.20;71.00;;;14.74;48.14;94354.66;4989144;28;20501;-59
2022/01/05 07:19:20;;;;;;;44.47;26.90;;;14.80;68.40;;;15.33;47.75;94359.22;4990735;28;20454;-62
2022/01/05 07:21:48;;;;;;;41.10;26.30;;;15.40;68.50;;;15.85;46.77;94350.38;4989716;28;20470;-62
2022/01/05 07:24:17;;;;;;;50.87;27.13;;;16.00;66.10;;;16.33;45.77;94363.19;4991217;28;20489;-58
2022/01/05 07:26:45;;;;;;;41.77;26.03;;;16.60;63.10;;;16.82;45.21;94359.78;4986570;28;20467;-59
2022/01/05 07:29:14;;;;;;;48.50;24.53;;;17.10;61.30;;;17.34;43.83;94370.22;4990502;28;20497;-57
2022/01/05 07:31:41;;;;;;;44.67;26.03;;;17.70;58.60;;;17.83;42.49;94365.78;4990410;28;20474;-60
2022/01/05 07:34:09;;;;;;;44.10;27.20;;;18.20;56.40;;;18.25;42.28;94364.78;4992341;28;20880;-64
2022/01/05 07:36:36;;;;;;;50.70;30.10;;;18.70;55.70;;;18.58;41.91;94353.38;4992347;28;20474;-58
2022/01/05 07:39:05;;;;;;;51.93;29.30;;;19.10;55.50;;;18.84;41.73;94365.13;4990202;28;20874;-64
2022/01/05 07:41:32;;;;;;;47.83;28.80;;;19.40;55.20;;;19.07;40.50;94369.25;4990604;28;20553;-59
2022/01/05 07:43:59;;;;;;;51.40;30.27;;;19.70;53.30;;;19.27;40.20;94372.75;4990982;28;20522;-59
2022/01/05 07:46:28;;;;;;;52.07;30.93;;;20.00;52.60;;;19.50;39.55;94371.50;4991594;28;20478;-59
2022/01/05 07:48:55;;;;;;;44.67;28.27;;;20.10;51.30;;;19.70;38.51;94371.44;4989849;28;20455;-65
2022/01/05 07:51:23;;;;;;;43.10;26.80;;;20.20;49.40;;;19.91;38.33;94370.41;4994242;28;20485;-59
2022/01/05 07:53:50;;;;;;;37.33;22.13;;;20.40;49.40;;;20.10;37.98;94357.22;4989390;28;20458;-59
2022/01/05 07:56:17;;;;;;;41.40;27.03;;;20.40;50.10;;;20.22;37.76;94367.00;4988431;28;20549;-59
2022/01/05 07:58:45;;;;;;;40.40;26.67;;;20.40;49.20;;;20.31;36.77;94367.59;4987041;28;20512;-58
2022/01/05 08:01:13;;;;;;;35.33;22.07;;;20.40;47.70;;;20.33;36.98;94370.88;4987296;28;20499;-58
2022/01/05 08:03:42;;;;;;;48.77;26.60;;;20.30;48.30;;;20.42;36.62;94368.78;4987373;28;21017;-63
2022/01/05 08:06:09;;;;;;;77.63;43.73;;;20.30;47.60;;;20.60;36.16;94370.72;4983729;28;20819;-59
2022/01/05 08:08:36;;;;;;;79.80;46.37;;;20.40;47.40;;;20.77;35.79;94366.56;4986980;28;20451;-64
2022/01/05 08:11:04;;;;;;;96.67;55.07;;;20.50;46.40;;;20.90;35.55;94354.94;4980871;28;20484;-60
2022/01/05 08:13:31;;;;;;;81.33;52.50;;;20.60;46.30;;;20.97;35.27;94375.47;4988647;28;20883;-60
2022/01/05 08:15:59;;;;;;;89.93;52.53;;;20.70;46.20;;;21.07;35.95;94376.63;4989455;28;20554;-59
2022/01/05 08:18:26;;;;;;;107.07;60.10;;;20.70;47.00;;;21.13;33.95;94365.06;4991785;28;20454;-64
2022/01/05 08:20:55;;;;;;;113.27;64.53;;;20.80;44.90;;;21.13;34.73;94365.06;4992120;28;20486;-65
2022/01/05 08:23:23;;;;;;;113.40;68.87;;;20.80;44.70;;;21.07;34.98;94368.59;4998425;28;20493;-59
2022/01/05 08:25:51;;;;;;;108.63;64.97;;;20.80;45.00;;;21.07;35.36;94368.59;4994128;28;20470;-58
2022/01/05 08:28:19;;;;;;;139.53;79.50;;;20.70;45.70;;;21.12;35.18;94366.09;4989865;28;20447;-59
2022/01/05 08:30:46;;;;;;;134.53;80.67;;;20.80;45.60;;;21.20;34.91;94358.84;4991337;28;20582;-58
2022/01/05 08:33:15;;;;;;;131.90;76.33;;;20.80;44.80;;;21.25;34.13;94362.47;4991047;28;20486;-63
2022/01/05 08:35:42;;;;;;;134.87;76.47;;;20.90;44.30;;;21.25;34.56;94351.78;4990805;28;20558;-58
2022/01/05 08:38:11;;;;;;;127.13;79.33;;;20.90;44.60;;;21.35;34.93;94353.97;4992042;28;20646;-59
2022/01/05 08:40:39;;;;;;;145.27;83.53;;;21.00;45.20;;;21.39;34.20;94346.31;4994320;28;20880;-65
2022/01/05 08:43:07;;;;;;;127.73;75.30;;;21.00;44.40;;;21.38;34.36;94350.88;4991729;28;20497;-65
2022/01/05 08:45:34;;;;;;;127.17;75.33;;;21.10;44.10;;;21.23;34.01;94358.41;4993358;28;20470;-57
2022/01/05 08:48:02;;;;;;;125.23;73.30;;;21.00;43.70;;;21.06;34.35;94353.59;4991360;28;20450;-63
2022/01/05 08:50:32;;;;;;;121.63;63.63;;;20.90;44.20;;;21.03;34.59;94359.38;4992579;28;20462;-65
2022/01/05 08:53:00;;;;;;;102.70;61.37;;;20.80;44.10;;;21.07;34.18;94357.09;4993862;28;20455;-59
2022/01/05 08:55:30;;;;;;;97.57;59.67;;;20.80;44.20;;;21.05;33.91;94362.66;4988290;28;20482;-65
2022/01/05 08:57:58;;;;;;;91.80;49.57;;;20.80;43.80;;;21.11;33.89;94360.97;4981651;28;20541;-58
2022/01/05 09:04:06;;;;;;;50.83;32.77;;;20.90;43.70;;;21.44;33.32;94346.47;4982731;28;20651;-59
2022/01/05 09:06:34;;;;;;;53.50;34.73;;;21.10;42.70;;;21.58;33.02;94352.53;4987114;28;21030;-58
2022/01/05 09:09:01;;;;;;;64.63;35.37;;;21.20;42.60;;;21.69;33.23;94348.31;4989766;28;20462;-59
2022/01/05 09:11:30;;;;;;;65.83;37.20;;;21.30;43.10;;;21.78;33.10;94330.94;4985064;28;20479;-59
2022/01/05 09:13:57;;;;;;;67.90;38.50;;;21.40;42.90;;;21.87;32.96;94342.97;4981063;28;20451;-59
2022/01/05 09:16:24;;;;;;;63.60;39.03;;;21.50;42.50;;;21.98;32.71;94339.59;4986781;28;20483;-65
2022/01/05 09:18:52;;;;;;;66.43;38.10;;;21.60;42.80;;;22.09;32.05;94339.84;4982169;28;20837;-57
2022/01/05 09:21:19;;;;;;;59.60;35.43;;;21.70;41.30;;;22.09;32.12;94319.25;4986318;28;20480;-63
2022/01/05 09:23:47;;;;;;;62.80;37.63;;;21.70;41.30;;;22.06;32.46;94319.72;4987981;28;20505;-59
2022/01/05 09:26:14;;;;;;;67.30;36.40;;;21.70;41.90;;;22.09;32.63;94319.25;4986276;28;20467;-63
2022/01/05 09:28:44;;;;;;;56.67;32.07;;;21.70;42.30;;;22.20;32.01;94302.41;4989882;28;20830;-58
2022/01/05 09:31:11;;;;;;;55.40;29.00;;;21.80;41.30;;;22.24;32.34;94301.97;4989496;28;20561;-64
2022/01/05 09:33:39;;;;;;;37.33;22.73;;;21.90;42.30;;;22.27;31.16;94298.84;4990140;28;20465;-63
2022/01/05 09:36:12;;;;;;;43.67;22.43;;;21.90;40.40;;;22.29;31.69;94288.69;4991822;28;20467;-58
2022/01/05 09:44:09;;;;;;;41.60;22.20;;;21.70;40.90;;;22.30;31.10;94298.38;4987698;28;20484;-65
2022/01/05 09:46:59;;;;;;;29.53;19.70;;;21.70;40.70;;;22.36;31.09;94284.13;4988098;28;20482;-57
2022/01/05 09:49:29;;;;;;;31.17;17.37;;;21.80;41.10;;;22.38;31.93;94287.38;4987584;28;20462;-64
2022/01/05 09:51:57;;;;;;;33.87;18.90;;;21.90;40.90;;;22.37;31.59;94275.84;4988195;28;20578;-57
2022/01/05 09:54:24;;;;;;;25.97;17.30;;;21.90;40.70;;;22.40;31.34;94271.06;4989795;28;20872;-65
2022/01/05 09:56:52;;;;;;;25.43;15.97;;;22.00;40.60;;;22.46;31.47;94270.16;4990556;28;20501;-58
2022/01/05 09:59:20;;;;;;;32.13;15.87;;;22.00;40.30;;;22.62;31.33;94272.19;4990101;28;20454;-59
2022/01/05 10:01:48;;;;;;;29.63;14.50;;;22.20;39.70;;;22.74;31.15;94266.84;4990144;28;20470;-65
2022/01/05 10:04:16;;;;;;;27.87;14.70;;;22.30;39.80;;;22.84;29.95;94261.72;4989607;28;20498;-65
2022/01/05 10:06:43;;;;;;;28.60;13.97;;;22.40;39.30;;;23.09;30.17;94258.88;4986715;28;20466;-64
2022/01/05 10:09:10;;;;;;;33.00;15.10;;;22.60;39.70;;;23.51;30.55;94254.44;4989863;28;20990;-58
2022/01/05 10:11:38;;;;;;;36.60;14.83;;;22.90;39.80;;;23.94;29.70;94247.81;4991045;28;20868;-59
2022/01/05 10:14:06;;;;;;;35.40;16.17;;;23.30;39.40;;;24.30;29.40;94257.38;4989108;28;20470;-60
2022/01/05 10:16:34;;;;;;;23.87;15.23;;;23.70;38.40;;;24.45;29.24;94240.72;4990092;28;20493;-64
2022/01/05 10:19:02;;;;;;;23.47;14.67;;;23.80;38.20;;;24.49;28.82;94243.72;4989343;28;20961;-59
2022/01/05 10:21:35;;;;;;;31.80;15.30;;;24.00;37.40;;;24.64;29.14;94244.03;4990038;28;20471;-64
2022/01/05 10:24:02;;;;;;;26.30;15.60;;;24.10;37.90;;;24.80;27.09;94238.91;4989271;28;20935;-57
2022/01/05 10:26:31;;;;;;;18.80;14.10;;;24.20;35.90;;;24.75;27.98;94236.13;4990759;28;20478;-64